createdAt,value
2023-05-22T00:01:19.536Z,66.92
2023-05-22T00:04:03.139Z,66.14
2023-05-22T00:06:35.874Z,65.63
2023-05-22T00:09:18.001Z,65.85
2023-05-22T00:12:03.194Z,65.67
2023-05-22T00:14:35.782Z,65.55
2023-05-22T00:17:18.722Z,65.92
2023-05-22T00:19:51.681Z,65.99
2023-05-22T00:22:35.584Z,66.23
2023-05-22T00:25:20.481Z,65.92
2023-05-22T00:28:06.167Z,65.81
2023-05-22T00:30:38.977Z,65.92
2023-05-22T00:33:23.972Z,66.33
2023-05-22T00:35:56.582Z,66.16
2023-05-22T00:38:38.709Z,66.24
2023-05-22T00:41:23.076Z,66.38
2023-05-22T00:43:55.804Z,66.46
2023-05-22T00:46:40.008Z,66.64
2023-05-22T00:49:12.606Z,66.08
2023-05-22T00:51:57.071Z,66.79
2023-05-22T00:54:45.381Z,67.19
2023-05-22T00:57:28.387Z,67.28
2023-05-22T01:00:01.718Z,67.69
2023-05-22T01:02:44.251Z,68.12
2023-05-22T01:05:18.468Z,68.05
2023-05-22T01:08:02.228Z,68.76
2023-05-22T01:10:44.536Z,68.84
2023-05-22T01:13:39.637Z,69.11
2023-05-22T01:16:28.654Z,69.02
2023-05-22T01:19:31.979Z,69.05
2023-05-22T01:22:28.329Z,68.44
2023-05-22T01:25:38.641Z,68.56
2023-05-22T01:28:41.304Z,68.54
2023-05-22T01:31:16.669Z,68.98
2023-05-22T01:34:03.181Z,68.97
2023-05-22T01:36:38.027Z,69.24
2023-05-22T01:39:22.582Z,69.47
2023-05-22T01:41:57.431Z,69.27
2023-05-22T01:44:43.057Z,69.08
2023-05-22T01:47:15.587Z,68.62
2023-05-22T01:49:57.837Z,68.94
2023-05-22T01:53:01.835Z,69.00
2023-05-22T01:55:50.558Z,68.74
2023-05-22T01:58:52.750Z,67.96
2023-05-22T02:01:37.606Z,67.64
2023-05-22T02:04:22.711Z,67.15
2023-05-22T02:07:05.717Z,66.69
2023-05-22T02:09:48.890Z,67.12
2023-05-22T02:12:34.902Z,67.07
2023-05-22T02:15:09.889Z,67.95
2023-05-22T02:17:53.553Z,68.14
2023-05-22T02:20:26.228Z,67.88
2023-05-22T02:23:08.246Z,68.13
2023-05-22T02:25:50.488Z,68.18
2023-05-22T02:28:23.357Z,68.38
2023-05-22T02:31:07.404Z,69.02
2023-05-22T02:33:40.040Z,68.94
2023-05-22T02:36:23.416Z,69.48
2023-05-22T02:38:56.242Z,68.78
2023-05-22T02:41:39.790Z,68.84
2023-05-22T02:44:23.751Z,67.34
2023-05-22T02:46:56.708Z,66.40
2023-05-22T02:49:41.182Z,66.20
2023-05-22T02:52:25.586Z,65.28
2023-05-22T02:54:58.112Z,63.80
2023-05-22T02:57:40.292Z,63.24
2023-05-22T03:00:13.883Z,62.30
2023-05-22T03:02:56.169Z,62.52
2023-05-22T03:05:40.436Z,62.33
2023-05-22T03:08:23.627Z,62.02
2023-05-22T03:11:08.761Z,61.62
2023-05-22T03:13:41.492Z,60.61
2023-05-22T03:16:27.071Z,60.70
2023-05-22T03:19:11.757Z,60.04
2023-05-22T03:21:55.741Z,60.28
2023-05-22T03:24:28.694Z,59.64
2023-05-22T03:27:15.597Z,59.85
2023-05-22T03:29:48.271Z,59.12
2023-05-22T03:32:30.708Z,58.98
2023-05-22T03:35:04.086Z,58.34
2023-05-22T03:37:46.492Z,58.38
2023-05-22T03:40:29.277Z,57.90
2023-05-22T03:43:02.076Z,56.77
2023-05-22T03:45:44.472Z,57.01
2023-05-22T03:48:17.135Z,56.11
2023-05-22T03:51:01.345Z,56.60
2023-05-22T03:53:33.812Z,55.95
2023-05-22T03:56:17.588Z,56.09
2023-05-22T03:58:52.178Z,55.26
2023-05-22T04:01:37.332Z,55.40
2023-05-22T04:04:12.434Z,54.57
2023-05-22T04:06:57.635Z,54.84
2023-05-22T04:09:32.880Z,54.71
2023-05-22T04:12:14.912Z,54.99
2023-05-22T04:14:58.536Z,54.80
2023-05-22T04:17:34.558Z,54.80
2023-05-22T04:20:22.400Z,55.09
2023-05-22T04:22:55.200Z,54.77
2023-05-22T04:25:27.315Z,54.84
2023-05-22T04:28:10.991Z,55.07
2023-05-22T04:30:45.517Z,54.87
2023-05-22T04:33:29.111Z,55.12
2023-05-22T04:36:03.034Z,54.94
2023-05-22T04:38:46.950Z,55.58
2023-05-22T04:41:21.233Z,55.49
2023-05-22T04:44:07.091Z,56.24
2023-05-22T04:46:40.788Z,56.82
2023-05-22T04:49:24.429Z,57.24
2023-05-22T04:51:59.209Z,58.11
2023-05-22T04:54:45.982Z,57.76
2023-05-22T04:57:18.441Z,57.70
2023-05-22T04:59:51.311Z,57.31
2023-05-22T05:02:34.998Z,59.12
2023-05-22T05:05:18.929Z,60.80
2023-05-22T05:08:02.982Z,62.43
2023-05-22T05:10:35.873Z,63.52
2023-05-22T05:13:08.780Z,65.24
2023-05-22T05:15:52.716Z,66.38
2023-05-22T05:18:25.851Z,67.58
2023-05-22T05:21:07.894Z,68.45
2023-05-22T05:23:40.469Z,69.88
2023-05-22T05:26:27.409Z,70.49
2023-05-22T05:29:12.878Z,71.86
2023-05-22T05:31:59.760Z,72.59
2023-05-22T05:34:47.971Z,73.79
2023-05-22T05:37:47.360Z,75.40
2023-05-22T05:40:20.509Z,75.40
2023-05-22T05:43:09.355Z,75.92
2023-05-22T05:45:55.633Z,77.19
2023-05-22T05:48:28.730Z,78.50
2023-05-22T05:51:12.344Z,79.10
2023-05-22T05:53:58.190Z,80.03
2023-05-22T05:56:32.003Z,80.74
2023-05-22T05:59:16.234Z,81.85
2023-05-22T06:02:14.896Z,82.58
2023-05-22T06:04:50.518Z,81.85
2023-05-22T06:07:36.714Z,82.40
2023-05-22T06:10:08.900Z,83.66
2023-05-22T06:12:52.891Z,83.38
2023-05-22T06:15:26.476Z,83.98
2023-05-22T06:18:12.628Z,83.97
2023-05-22T06:20:45.062Z,83.36
2023-05-22T06:23:29.277Z,84.97
2023-05-22T06:26:31.212Z,84.59
2023-05-22T06:29:03.943Z,83.94
2023-05-22T06:31:48.882Z,84.22
2023-05-22T06:34:22.759Z,84.11
2023-05-22T06:36:55.160Z,84.20
2023-05-22T06:39:43.596Z,85.01
2023-05-22T06:42:30.571Z,84.93
2023-05-22T06:45:19.306Z,84.91
2023-05-22T06:48:05.088Z,84.74
2023-05-22T06:50:39.670Z,84.74
2023-05-22T06:53:23.518Z,84.96
2023-05-22T06:56:07.715Z,84.33
2023-05-22T06:59:00.701Z,83.96
2023-05-22T07:01:38.316Z,84.29
2023-05-22T07:04:24.390Z,85.60
2023-05-22T07:07:11.696Z,87.35
2023-05-22T07:09:44.737Z,87.39
2023-05-22T07:12:30.597Z,86.68
2023-05-22T07:15:03.381Z,86.70
2023-05-22T07:17:47.411Z,86.11
2023-05-22T07:20:20.081Z,84.50
2023-05-22T07:23:11.559Z,84.78
2023-05-22T07:25:44.665Z,83.87
2023-05-22T07:28:28.318Z,84.84
2023-05-22T07:31:16.851Z,84.04
2023-05-22T07:33:50.465Z,82.40
2023-05-22T07:36:35.743Z,82.47
2023-05-22T07:39:10.067Z,82.07
2023-05-22T07:41:57.233Z,84.02
2023-05-22T07:44:31.802Z,84.06
2023-05-22T07:47:17.700Z,85.90
2023-05-22T07:49:50.450Z,81.39
2023-05-22T07:52:36.619Z,80.72
2023-05-22T07:55:19.040Z,77.90
2023-05-22T07:58:04.392Z,77.60
2023-05-22T08:00:38.806Z,77.24
2023-05-22T08:03:24.166Z,76.02
2023-05-22T08:06:09.031Z,75.32
2023-05-22T08:08:55.485Z,74.71
2023-05-22T08:11:28.223Z,73.28
2023-05-22T08:14:12.772Z,73.48
2023-05-22T08:16:45.543Z,72.16
2023-05-22T08:19:28.012Z,72.56
2023-05-22T08:22:01.234Z,72.44
2023-05-22T08:24:44.892Z,73.52
2023-05-22T08:27:18.098Z,70.46
2023-05-22T08:30:04.695Z,68.99
2023-05-22T08:32:39.032Z,66.96
2023-05-22T08:35:22.948Z,66.42
2023-05-22T08:37:55.761Z,66.33
2023-05-22T08:40:42.576Z,68.27
2023-05-22T08:43:25.908Z,68.31
2023-05-22T08:46:01.269Z,66.58
2023-05-22T08:48:43.422Z,65.90
2023-05-22T08:51:32.224Z,64.92
2023-05-22T08:54:07.858Z,66.72
2023-05-22T08:56:56.599Z,69.00
2023-05-22T08:59:27.830Z,67.90
2023-05-22T09:02:14.120Z,68.08
2023-05-22T09:04:47.073Z,65.52
2023-05-22T09:07:31.110Z,65.83
2023-05-22T09:10:05.544Z,59.59
2023-05-22T09:12:37.891Z,59.97
2023-05-22T09:15:21.442Z,59.58
2023-05-22T09:17:53.970Z,57.10
2023-05-22T09:20:39.863Z,57.55
2023-05-22T09:23:18.044Z,54.30
2023-05-22T09:26:01.743Z,56.39
2023-05-22T09:28:38.763Z,53.69
2023-05-22T09:31:11.343Z,52.81
2023-05-22T09:34:00.046Z,54.71
2023-05-22T09:36:43.604Z,55.04
2023-05-22T09:39:16.339Z,52.49
2023-05-22T09:42:02.793Z,54.38
2023-05-22T09:44:34.651Z,54.68
2023-05-22T09:47:19.688Z,56.33
2023-05-22T09:50:07.537Z,54.62
2023-05-22T09:52:53.080Z,53.18
2023-05-22T09:55:26.693Z,51.70
2023-05-22T09:58:13.044Z,51.79
2023-05-22T10:00:46.584Z,51.25
2023-05-22T10:03:34.780Z,52.20
2023-05-22T10:06:09.436Z,51.08
2023-05-22T10:08:47.229Z,50.01
2023-05-22T10:11:33.395Z,51.70
2023-05-22T10:14:07.930Z,50.19
2023-05-22T10:16:52.956Z,49.47
2023-05-22T10:19:41.673Z,50.08
2023-05-22T10:22:16.990Z,47.51
2023-05-22T10:25:01.756Z,47.80
2023-05-22T10:27:34.621Z,47.79
2023-05-22T10:30:22.311Z,48.72
2023-05-22T10:33:20.712Z,49.09
2023-05-22T10:36:05.541Z,48.75
2023-05-22T10:39:07.547Z,49.60
2023-05-22T10:41:41.287Z,49.38
2023-05-22T10:44:26.593Z,49.78
2023-05-22T10:46:59.554Z,49.62
2023-05-22T10:49:49.929Z,49.37
2023-05-22T10:52:24.618Z,47.05
2023-05-22T10:55:11.471Z,47.39
2023-05-22T10:57:44.124Z,45.79
2023-05-22T11:00:30.734Z,46.26
2023-05-22T11:03:17.770Z,45.89
2023-05-22T11:05:55.098Z,46.77
2023-05-22T11:08:39.453Z,47.49
2023-05-22T11:11:27.912Z,46.18
2023-05-22T11:14:04.483Z,45.29
2023-05-22T11:16:49.388Z,46.50
2023-05-22T11:19:24.313Z,43.53
2023-05-22T11:22:08.737Z,43.74
2023-05-22T11:24:42.204Z,43.70
2023-05-22T11:27:26.353Z,43.98
2023-05-22T11:30:01.250Z,42.49
2023-05-22T11:32:48.369Z,43.53
2023-05-22T11:35:22.952Z,43.05
2023-05-22T11:38:07.540Z,43.18
2023-05-22T11:40:40.480Z,44.38
2023-05-22T11:43:36.580Z,42.94
2023-05-22T11:46:11.319Z,42.49
2023-05-22T11:48:56.275Z,44.04
2023-05-22T11:51:30.397Z,43.20
2023-05-22T11:54:14.860Z,41.74
2023-05-22T11:56:48.914Z,38.44
2023-05-22T11:59:31.625Z,36.46
2023-05-22T12:02:04.351Z,32.51
2023-05-22T12:04:38.604Z,30.61
2023-05-22T12:07:10.897Z,29.30
2023-05-22T12:09:44.196Z,32.37
2023-05-22T12:12:28.676Z,28.47
2023-05-22T12:15:14.015Z,27.79
2023-05-22T12:17:59.202Z,26.80
2023-05-22T12:20:45.866Z,25.51
2023-05-22T12:23:26.446Z,22.10
2023-05-22T12:26:13.793Z,22.72
2023-05-22T12:28:46.738Z,20.04
2023-05-22T12:31:31.928Z,20.63
2023-05-22T12:34:07.838Z,18.72
2023-05-22T12:36:49.964Z,19.41
2023-05-22T12:39:22.629Z,18.51
2023-05-22T12:42:06.601Z,19.53
2023-05-22T12:44:40.841Z,18.18
2023-05-22T12:47:25.675Z,18.41
2023-05-22T12:50:10.402Z,17.55
2023-05-22T12:52:54.171Z,17.50
2023-05-22T12:55:36.752Z,17.39
2023-05-22T12:58:09.899Z,16.15
2023-05-22T13:00:53.618Z,16.78
2023-05-22T13:03:37.773Z,16.79
2023-05-22T13:06:10.588Z,16.76
2023-05-22T13:08:54.320Z,16.74
2023-05-22T13:11:27.039Z,15.90
2023-05-22T13:14:10.613Z,17.05
2023-05-22T13:16:43.132Z,17.13
2023-05-22T13:19:27.703Z,18.43
2023-05-22T13:22:00.771Z,17.47
2023-05-22T13:24:42.961Z,17.35
2023-05-22T13:27:18.159Z,16.14
2023-05-22T13:30:00.392Z,15.61
2023-05-22T13:32:38.040Z,14.34
2023-05-22T13:35:21.863Z,14.79
2023-05-22T13:37:54.682Z,15.45
2023-05-22T13:40:38.209Z,15.79
2023-05-22T13:43:11.240Z,14.54
2023-05-22T13:45:53.348Z,14.54
2023-05-22T13:48:25.817Z,14.57
2023-05-22T13:50:58.316Z,15.32
2023-05-22T13:53:42.013Z,15.84
2023-05-22T13:56:14.654Z,16.04
2023-05-22T13:58:58.892Z,17.20
2023-05-22T14:01:31.676Z,17.63
2023-05-22T14:04:16.950Z,18.79
2023-05-22T14:06:49.937Z,19.83
2023-05-22T14:09:33.755Z,21.10
2023-05-22T14:12:06.530Z,22.94
2023-05-22T14:14:50.199Z,23.65
2023-05-22T14:17:22.794Z,25.11
2023-05-22T14:20:05.509Z,25.71
2023-05-22T14:22:52.814Z,27.09
2023-05-22T14:25:23.739Z,27.10
2023-05-22T14:28:07.834Z,28.29
2023-05-22T14:30:41.113Z,29.96
2023-05-22T14:33:23.611Z,29.91
2023-05-22T14:35:56.207Z,29.87
2023-05-22T14:38:38.751Z,30.07
2023-05-22T14:41:22.212Z,30.50
2023-05-22T14:44:04.306Z,30.23
2023-05-22T14:46:37.182Z,30.21
2023-05-22T14:49:21.538Z,29.68
2023-05-22T14:51:54.913Z,28.88
2023-05-22T14:54:37.296Z,28.43
2023-05-22T14:57:21.081Z,27.74
2023-05-22T14:59:54.281Z,27.59
2023-05-22T15:02:39.363Z,28.22
2023-05-22T15:05:12.557Z,28.31
2023-05-22T15:07:58.708Z,28.72
2023-05-22T15:10:42.938Z,29.24
2023-05-22T15:13:15.767Z,29.23
2023-05-22T15:15:58.614Z,29.88
2023-05-22T15:18:31.336Z,30.49
2023-05-22T15:21:15.598Z,31.04
2023-05-22T15:24:00.819Z,31.63
2023-05-22T15:26:33.354Z,32.40
2023-05-22T15:29:15.606Z,32.53
2023-05-22T15:31:48.264Z,32.88
2023-05-22T15:34:31.112Z,33.21
2023-05-22T15:37:03.828Z,33.78
2023-05-22T15:39:48.754Z,33.61
2023-05-22T15:42:33.906Z,35.13
2023-05-22T15:45:07.072Z,45.67
2023-05-22T15:47:49.363Z,46.62
2023-05-22T15:50:36.421Z,47.96
2023-05-22T15:53:09.189Z,50.76
2023-05-22T15:55:51.856Z,50.57
2023-05-22T15:58:24.431Z,52.75
2023-05-22T16:01:08.393Z,52.41
2023-05-22T16:03:41.325Z,52.97
2023-05-22T16:06:25.605Z,51.61
2023-05-22T16:08:58.160Z,51.22
2023-05-22T16:11:42.264Z,49.59
2023-05-22T16:14:15.164Z,50.34
2023-05-22T16:16:58.309Z,48.34
2023-05-22T16:19:32.647Z,46.91
2023-05-22T16:22:15.928Z,45.48
2023-05-22T16:24:58.805Z,45.78
2023-05-22T16:27:44.422Z,46.11
2023-05-22T16:30:18.479Z,46.42
2023-05-22T16:33:03.990Z,46.66
2023-05-22T16:35:47.962Z,47.29
2023-05-22T16:38:20.851Z,47.36
2023-05-22T16:41:03.111Z,47.04
2023-05-22T16:43:48.516Z,47.19
2023-05-22T16:46:21.353Z,47.38
2023-05-22T16:49:05.186Z,47.55
2023-05-22T16:51:49.324Z,48.16
2023-05-22T16:54:21.846Z,48.68
2023-05-22T16:57:07.665Z,48.67
2023-05-22T16:59:41.374Z,48.82
2023-05-22T17:02:25.089Z,48.56
2023-05-22T17:04:57.809Z,49.14
2023-05-22T17:07:40.002Z,48.97
2023-05-22T17:10:22.213Z,49.49
2023-05-22T17:12:55.074Z,50.02
2023-05-22T17:15:38.925Z,50.12
2023-05-22T17:18:24.330Z,50.15
2023-05-22T17:20:57.641Z,51.58
2023-05-22T17:23:41.421Z,51.28
2023-05-22T17:26:25.254Z,51.64
2023-05-22T17:28:57.713Z,52.06
2023-05-22T17:32:01.278Z,52.16
2023-05-22T17:34:43.281Z,53.26
2023-05-22T17:37:16.125Z,53.77
2023-05-22T17:39:58.279Z,53.85
2023-05-22T17:42:42.334Z,54.49
2023-05-22T17:45:26.327Z,54.36
2023-05-22T17:47:58.923Z,55.92
2023-05-22T17:50:44.269Z,56.21
2023-05-22T17:53:23.280Z,56.95
2023-05-22T17:56:07.391Z,56.99
2023-05-22T17:58:40.048Z,57.99
2023-05-22T18:01:23.874Z,58.01
2023-05-22T18:03:58.670Z,58.81
2023-05-22T18:06:40.923Z,58.89
2023-05-22T18:09:25.181Z,59.16
2023-05-22T18:11:58.981Z,59.57
2023-05-22T18:14:43.678Z,60.02
2023-05-22T18:17:16.036Z,60.65
2023-05-22T18:20:00.853Z,60.81
2023-05-22T18:22:33.581Z,61.13
2023-05-22T18:25:17.187Z,60.60
2023-05-22T18:28:00.799Z,60.99
2023-05-22T18:30:49.260Z,61.28
2023-05-22T18:33:33.655Z,61.32
2023-05-22T18:36:06.480Z,62.32
2023-05-22T18:38:50.071Z,62.25
2023-05-22T18:41:22.624Z,63.26
2023-05-22T18:44:05.282Z,62.51
2023-05-22T18:46:38.131Z,63.19
2023-05-22T18:49:22.265Z,63.24
2023-05-22T18:52:04.539Z,63.53
2023-05-22T18:54:37.293Z,64.06
2023-05-22T18:57:21.959Z,63.68
2023-05-22T19:00:04.517Z,63.10
2023-05-22T19:02:47.408Z,63.93
2023-05-22T19:05:30.241Z,64.30
2023-05-22T19:08:13.967Z,64.35
2023-05-22T19:11:00.172Z,64.56
2023-05-22T19:13:42.158Z,65.07
2023-05-22T19:16:15.497Z,67.48
2023-05-22T19:18:59.071Z,66.79
2023-05-22T19:21:32.675Z,67.04
2023-05-22T19:24:14.811Z,67.31
2023-05-22T19:26:47.526Z,67.74
2023-05-22T19:29:32.144Z,67.81
2023-05-22T19:32:04.610Z,68.31
2023-05-22T19:34:46.651Z,68.08
2023-05-22T19:37:28.630Z,68.56
2023-05-22T19:40:01.458Z,68.99
2023-05-22T19:42:44.968Z,69.12
2023-05-22T19:45:18.458Z,69.51
2023-05-22T19:48:02.502Z,69.54
2023-05-22T19:50:47.085Z,69.61
2023-05-22T19:53:29.288Z,70.10
2023-05-22T19:56:05.077Z,70.25
2023-05-22T19:58:48.828Z,70.29
2023-05-22T20:01:21.309Z,70.46
2023-05-22T20:04:05.698Z,70.24
2023-05-22T20:06:38.318Z,70.18
2023-05-22T20:09:27.473Z,69.92
2023-05-22T20:11:59.905Z,69.87
2023-05-22T20:14:43.618Z,69.79
2023-05-22T20:17:16.216Z,69.53
2023-05-22T20:20:00.205Z,69.86
2023-05-22T20:22:34.372Z,69.95
2023-05-22T20:25:19.717Z,69.61
2023-05-22T20:27:52.571Z,69.28
2023-05-22T20:30:36.483Z,68.34
2023-05-22T20:33:09.297Z,67.45
2023-05-22T20:35:53.302Z,67.07
2023-05-22T20:38:26.185Z,66.33
2023-05-22T20:41:29.468Z,66.27
2023-05-22T20:44:11.504Z,66.23
2023-05-22T20:46:44.030Z,65.92
2023-05-22T20:49:28.106Z,65.65
2023-05-22T20:52:00.651Z,65.33
2023-05-22T20:54:45.742Z,65.32
2023-05-22T20:57:29.309Z,65.29
2023-05-22T21:00:11.922Z,65.38
2023-05-22T21:02:44.713Z,65.03
2023-05-22T21:05:26.884Z,65.31
2023-05-22T21:07:59.709Z,64.92
2023-05-22T21:10:43.196Z,64.85
2023-05-22T21:13:15.675Z,64.78
2023-05-22T21:15:57.777Z,65.02
2023-05-22T21:18:39.757Z,64.90
2023-05-22T21:21:12.317Z,64.68
2023-05-22T21:23:55.889Z,65.21
2023-05-22T21:26:40.968Z,65.17
2023-05-22T21:29:13.374Z,64.77
2023-05-22T21:31:55.633Z,65.03
2023-05-22T21:34:28.197Z,64.93
2023-05-22T21:37:12.426Z,65.08
2023-05-22T21:39:56.353Z,65.56
2023-05-22T21:42:44.517Z,65.23
2023-05-22T21:45:14.732Z,64.83
2023-05-22T21:47:47.537Z,64.93
2023-05-22T21:50:31.819Z,65.01
2023-05-22T21:53:04.379Z,65.00
2023-05-22T21:55:48.994Z,65.55
2023-05-22T21:58:21.482Z,65.24
2023-05-22T22:01:05.139Z,65.76
2023-05-22T22:03:39.082Z,65.54
2023-05-22T22:06:21.216Z,65.97
2023-05-22T22:08:53.754Z,66.43
2023-05-22T22:11:37.629Z,66.54
2023-05-22T22:14:10.094Z,66.42
2023-05-22T22:16:57.029Z,66.72
2023-05-22T22:19:42.008Z,67.27
2023-05-22T22:22:14.732Z,67.40
2023-05-22T22:24:57.115Z,67.96
2023-05-22T22:27:30.262Z,67.96
2023-05-22T22:30:12.855Z,68.17
2023-05-22T22:32:48.169Z,68.25
2023-05-22T22:35:31.505Z,68.46
2023-05-22T22:38:04.302Z,68.46
2023-05-22T22:40:46.602Z,68.85
2023-05-22T22:43:19.159Z,69.05
2023-05-22T22:46:03.707Z,69.32
2023-05-22T22:48:36.785Z,69.23
2023-05-22T22:51:21.626Z,69.76
2023-05-22T22:54:06.120Z,69.89
2023-05-22T22:56:39.130Z,69.85
2023-05-22T22:59:23.267Z,70.29
2023-05-22T23:01:56.148Z,70.30
2023-05-22T23:04:41.538Z,70.73
2023-05-22T23:07:26.293Z,70.89
2023-05-22T23:09:59.219Z,71.00
2023-05-22T23:12:35.202Z,71.17
2023-05-22T23:15:19.217Z,71.52
2023-05-22T23:17:52.434Z,71.38
2023-05-22T23:20:36.253Z,71.80
2023-05-22T23:23:20.469Z,71.70
2023-05-22T23:26:04.307Z,71.45
2023-05-22T23:28:37.473Z,71.45
2023-05-22T23:31:19.876Z,71.76
2023-05-22T23:33:56.343Z,71.37
2023-05-22T23:36:39.934Z,71.76
2023-05-22T23:39:12.556Z,71.38
2023-05-22T23:41:55.067Z,71.60
2023-05-22T23:44:27.880Z,71.29
2023-05-22T23:47:11.681Z,71.25
2023-05-22T23:49:44.373Z,71.25
2023-05-22T23:52:27.053Z,71.81
2023-05-22T23:54:59.887Z,71.65
2023-05-22T23:57:43.511Z,71.94
